Time;durP1;ratioP1;P1;durP2;ratioP2;P2;SDS_P1;SDS_P2;PMS_P1;PMS_P2;Temp;Humidity;BMP_temperature;BMP_pressure;BME280_temperature;BME280_humidity;BME280_pressure;Samples;Min_cycle;Max_cycle;Signal;HPM_P1;HPM_P2
2023/10/20 00:01:45;;;;;;;16.90;12.00;;;7.70;99.90;;;;;;5052752;28;20049;-80
2023/10/20 00:04:11;;;;;;;17.13;11.68;;;7.70;99.90;;;;;;5051957;28;20490;-82
2023/10/20 00:06:39;;;;;;;17.20;12.00;;;7.70;99.90;;;;;;5052110;28;20535;-82
2023/10/20 00:09:06;;;;;;;18.55;12.48;;;7.70;99.90;;;;;;5051600;28;20056;-81
2023/10/20 00:11:32;;;;;;;18.65;12.68;;;7.70;99.90;;;;;;5052021;28;20041;-81
2023/10/20 00:13:59;;;;;;;17.80;12.15;;;7.70;99.90;;;;;;5051726;28;20057;-80
2023/10/20 00:16:27;;;;;;;17.65;11.85;;;7.70;99.90;;;;;;5051808;28;20045;-81
2023/10/20 00:18:52;;;;;;;19.85;12.23;;;7.70;99.90;;;;;;5052122;28;20067;-80
2023/10/20 00:21:18;;;;;;;18.15;11.82;;;7.70;99.90;;;;;;5052008;28;20040;-80
2023/10/20 00:23:44;;;;;;;19.30;12.75;;;7.70;99.90;;;;;;5051832;28;20041;-81
2023/10/20 00:26:10;;;;;;;21.13;13.38;;;7.70;99.90;;;;;;5051964;28;20451;-82
2023/10/20 00:28:35;;;;;;;19.00;13.27;;;7.70;99.90;;;;;;5051790;28;20045;-81
2023/10/20 00:31:01;;;;;;;17.58;12.07;;;7.70;99.90;;;;;;5051591;28;20123;-80
2023/10/20 00:33:26;;;;;;;22.40;13.10;;;7.70;99.90;;;;;;5052052;28;20594;-82
2023/10/20 00:35:53;;;;;;;22.77;13.10;;;7.70;99.90;;;;;;5051637;28;20037;-81
2023/10/20 00:38:18;;;;;;;22.38;13.75;;;7.70;99.90;;;;;;5050863;28;20064;-80
2023/10/20 00:40:50;;;;;;;22.08;13.85;;;7.70;99.90;;;;;;5050453;28;20065;-79
2023/10/20 00:43:16;;;;;;;24.10;13.80;;;7.70;99.90;;;;;;5034873;28;20044;-80
2023/10/20 00:45:44;;;;;;;21.90;13.82;;;7.60;99.90;;;;;;5051455;28;20041;-80
2023/10/20 00:48:14;;;;;;;24.75;14.27;;;7.70;99.90;;;;;;5051013;28;20330;-79
2023/10/20 00:50:43;;;;;;;20.77;13.45;;;7.60;99.90;;;;;;5050122;28;20110;-79
2023/10/20 00:53:09;;;;;;;22.40;13.55;;;7.60;99.90;;;;;;5050840;28;20493;-80
2023/10/20 00:55:35;;;;;;;23.15;13.88;;;7.60;99.90;;;;;;5052319;28;20083;-81
2023/10/20 00:58:01;;;;;;;24.17;14.90;;;7.60;99.90;;;;;;5051104;28;20412;-81
2023/10/20 01:00:27;;;;;;;22.77;14.50;;;7.70;99.90;;;;;;5050115;28;20056;-80
2023/10/20 01:02:53;;;;;;;27.20;13.82;;;7.60;99.90;;;;;;5051006;28;20087;-80
2023/10/20 01:05:24;;;;;;;24.65;14.55;;;7.60;99.90;;;;;;5050810;28;20072;-80
2023/10/20 01:07:50;;;;;;;24.70;14.32;;;7.70;99.90;;;;;;5050817;28;20044;-81
2023/10/20 01:10:16;;;;;;;22.55;12.82;;;7.70;99.90;;;;;;5051143;28;20037;-84
2023/10/20 01:12:42;;;;;;;22.45;14.05;;;7.60;99.90;;;;;;5050763;28;20033;-80
2023/10/20 01:15:09;;;;;;;24.88;14.82;;;7.70;99.90;;;;;;5051126;28;20041;-80
2023/10/20 01:17:35;;;;;;;25.77;14.55;;;7.60;99.90;;;;;;5050890;28;20095;-79
2023/10/20 01:20:02;;;;;;;23.52;14.10;;;7.60;99.90;;;;;;5050642;28;20037;-78
2023/10/20 01:22:28;;;;;;;26.02;15.13;;;7.70;99.90;;;;;;5050669;28;20144;-81
2023/10/20 01:24:54;;;;;;;25.48;15.85;;;7.70;99.90;;;;;;5034317;28;20069;-79
2023/10/20 01:27:19;;;;;;;27.77;15.63;;;7.60;99.90;;;;;;5050388;28;20032;-81
2023/10/20 01:29:45;;;;;;;27.98;14.82;;;7.60;99.90;;;;;;5050513;28;20127;-81
2023/10/20 01:32:11;;;;;;;27.77;16.05;;;7.60;99.90;;;;;;5050633;28;20562;-80
2023/10/20 01:34:36;;;;;;;26.63;15.27;;;7.60;99.90;;;;;;5050736;28;20071;-81
2023/10/20 01:37:02;;;;;;;29.10;17.65;;;7.60;99.90;;;;;;5050561;28;20516;-81
2023/10/20 01:39:29;;;;;;;25.08;15.88;;;7.60;99.90;;;;;;5050898;28;20120;-81
2023/10/20 01:41:55;;;;;;;27.85;16.33;;;7.60;99.90;;;;;;5054948;28;20045;-81
2023/10/20 01:44:21;;;;;;;26.63;15.32;;;7.60;99.90;;;;;;5055083;28;20496;-81
2023/10/20 01:46:49;;;;;;;29.92;18.23;;;7.60;99.90;;;;;;5054255;28;20048;-80
2023/10/20 01:49:18;;;;;;;30.08;16.63;;;7.60;99.90;;;;;;5054283;28;20377;-80
2023/10/20 01:51:44;;;;;;;26.25;15.98;;;7.60;99.90;;;;;;5054345;28;20068;-82
2023/10/20 01:54:10;;;;;;;29.20;16.20;;;7.60;99.90;;;;;;5054483;28;20377;-81
2023/10/20 01:56:35;;;;;;;29.20;15.82;;;7.60;99.90;;;;;;5054860;28;20048;-80
2023/10/20 01:59:01;;;;;;;28.10;16.60;;;7.60;99.90;;;;;;5054044;28;20210;-80
2023/10/20 02:01:27;;;;;;;29.38;15.63;;;7.60;99.90;;;;;;5054581;28;20033;-81
2023/10/20 02:03:52;;;;;;;34.15;16.50;;;7.60;99.90;;;;;;5054310;28;20041;-82
2023/10/20 02:06:18;;;;;;;28.80;16.52;;;7.70;99.90;;;;;;5054408;28;20041;-83
2023/10/20 02:08:44;;;;;;;30.33;16.35;;;7.60;99.90;;;;;;5054122;28;20497;-77
2023/10/20 02:11:09;;;;;;;29.90;16.88;;;7.70;99.90;;;;;;5053606;28;20128;-80
2023/10/20 02:13:38;;;;;;;27.13;16.05;;;7.70;99.90;;;;;;5037819;28;20125;-80
2023/10/20 02:16:07;;;;;;;27.55;16.42;;;7.70;99.90;;;;;;5054645;28;20389;-80
2023/10/20 02:18:32;;;;;;;30.08;16.60;;;7.70;99.90;;;;;;5054087;28;20124;-82
2023/10/20 02:21:07;;;;;;;29.50;16.38;;;7.70;99.90;;;;;;5054040;28;20077;-81
2023/10/20 02:23:40;;;;;;;28.15;17.23;;;7.60;99.90;;;;;;5053978;28;20513;-79
2023/10/20 02:26:07;;;;;;;29.55;16.77;;;7.70;99.90;;;;;;5053857;28;20068;-81
2023/10/20 02:28:37;;;;;;;28.10;15.52;;;7.70;99.90;;;;;;5054341;28;20103;-81
2023/10/20 02:31:20;;;;;;;26.33;15.75;;;7.60;99.90;;;;;;5054030;28;20037;-81
2023/10/20 02:33:46;;;;;;;30.65;16.30;;;7.60;99.90;;;;;;5054559;28;20041;-82
2023/10/20 02:36:19;;;;;;;28.23;16.38;;;7.70;99.90;;;;;;5053740;28;20045;-79
2023/10/20 02:38:46;;;;;;;27.08;16.60;;;7.60;99.90;;;;;;5053765;28;20052;-81
2023/10/20 02:41:13;;;;;;;28.55;15.88;;;7.60;99.90;;;;;;5053401;28;20044;-81
2023/10/20 02:43:40;;;;;;;24.90;16.10;;;7.70;99.90;;;;;;5053795;28;20041;-81
2023/10/20 02:46:06;;;;;;;28.77;17.00;;;7.70;99.90;;;;;;5037055;28;20072;-82
2023/10/20 02:48:32;;;;;;;27.08;15.90;;;7.60;99.90;;;;;;5053392;28;20049;-81
2023/10/20 02:51:07;;;;;;;31.85;17.00;;;7.60;99.90;;;;;;5052552;28;20322;-82
2023/10/20 02:53:32;;;;;;;29.63;17.42;;;7.70;99.90;;;;;;5053548;28;20033;-81
2023/10/20 02:55:58;;;;;;;30.95;18.60;;;7.60;99.90;;;;;;5053452;28;20060;-79
2023/10/20 02:58:23;;;;;;;26.67;16.30;;;7.70;99.90;;;;;;5053258;28;20389;-81
2023/10/20 03:00:50;;;;;;;28.05;16.60;;;7.60;99.90;;;;;;5053057;28;20496;-79
2023/10/20 03:03:17;;;;;;;28.27;15.85;;;7.60;99.90;;;;;;5052790;28;20048;-83
2023/10/20 03:05:43;;;;;;;26.42;16.30;;;7.60;99.90;;;;;;5053340;28;20367;-80
2023/10/20 03:08:09;;;;;;;26.95;16.17;;;7.60;99.90;;;;;;5052099;28;20040;-82
2023/10/20 03:10:36;;;;;;;27.95;16.90;;;7.60;99.90;;;;;;5052296;28;20468;-79
2023/10/20 03:13:01;;;;;;;27.67;16.38;;;7.60;99.90;;;;;;5053329;28;20045;-80
2023/10/20 03:15:27;;;;;;;26.35;16.88;;;7.60;99.90;;;;;;5052729;28;20056;-79
2023/10/20 03:17:52;;;;;;;27.40;16.63;;;7.50;99.90;;;;;;5053159;28;20040;-82
2023/10/20 03:20:24;;;;;;;29.60;17.30;;;7.60;99.90;;;;;;5051730;28;20048;-80
2023/10/20 03:22:52;;;;;;;29.23;17.13;;;7.60;99.90;;;;;;5052698;28;20045;-81
2023/10/20 03:25:18;;;;;;;26.95;15.82;;;7.60;99.90;;;;;;5053052;28;20044;-81
2023/10/20 03:27:44;;;;;;;33.38;17.40;;;7.60;99.90;;;;;;5052811;28;20059;-79
2023/10/20 03:30:09;;;;;;;25.70;16.48;;;7.60;99.90;;;;;;5052122;28;20044;-79
2023/10/20 03:32:35;;;;;;;26.92;16.05;;;7.60;99.90;;;;;;5052390;28;20500;-78
2023/10/20 03:35:01;;;;;;;27.25;15.65;;;7.60;99.90;;;;;;5052521;28;20035;-80
2023/10/20 03:37:27;;;;;;;24.60;15.30;;;7.60;99.90;;;;;;5052712;28;20041;-82
2023/10/20 03:39:53;;;;;;;23.50;15.27;;;7.50;99.90;;;;;;5052368;28;20436;-81
2023/10/20 03:42:18;;;;;;;26.88;16.05;;;7.60;99.90;;;;;;5052663;28;20053;-82
2023/10/20 03:44:47;;;;;;;29.65;16.23;;;7.50;99.90;;;;;;5052271;28;20044;-78
2023/10/20 03:47:13;;;;;;;30.02;16.52;;;7.50;99.90;;;;;;5052130;28;20063;-79
2023/10/20 03:49:39;;;;;;;24.40;15.15;;;7.50;99.90;;;;;;5051952;28;20049;-80
2023/10/20 03:52:06;;;;;;;24.42;15.70;;;7.50;99.90;;;;;;5051976;28;20327;-82
2023/10/20 03:54:33;;;;;;;25.38;16.23;;;7.50;99.90;;;;;;5052151;28;20045;-80
2023/10/20 03:56:59;;;;;;;25.77;15.77;;;7.50;99.90;;;;;;5052119;28;20119;-80
2023/10/20 03:59:25;;;;;;;27.90;16.08;;;7.50;99.90;;;;;;5051937;28;20116;-81
2023/10/20 04:01:53;;;;;;;27.05;15.35;;;7.50;99.90;;;;;;5051747;28;20588;-80
2023/10/20 04:04:19;;;;;;;25.35;15.27;;;7.50;99.90;;;;;;5035202;28;20041;-81
2023/10/20 04:06:45;;;;;;;22.85;14.68;;;7.50;99.90;;;;;;5052001;28;20047;-81
2023/10/20 04:09:11;;;;;;;25.33;15.15;;;7.50;99.90;;;;;;5051768;28;20052;-82
2023/10/20 04:11:38;;;;;;;23.92;14.52;;;7.50;99.90;;;;;;5051733;28;20056;-79
2023/10/20 04:14:06;;;;;;;22.80;14.90;;;7.40;99.90;;;;;;5051509;28;20045;-80
2023/10/20 04:16:42;;;;;;;20.88;14.13;;;7.50;99.90;;;;;;5051386;28;20032;-78
2023/10/20 04:19:14;;;;;;;22.83;14.43;;;7.40;99.90;;;;;;5051723;28;20099;-81
2023/10/20 04:21:43;;;;;;;20.27;13.70;;;7.50;99.90;;;;;;5051830;28;20471;-77
2023/10/20 04:24:10;;;;;;;19.40;13.93;;;7.50;99.90;;;;;;5051445;28;20069;-80
2023/10/20 04:26:38;;;;;;;21.75;14.25;;;7.40;99.90;;;;;;5051785;28;20412;-80
2023/10/20 04:56:22;;;;;;;;;;;7.50;99.90;;;;;;5051518;28;20080;-82
2023/10/20 05:01:26;;;;;;;18.88;12.10;;;7.50;99.90;;;;;;5052056;28;20041;-80
2023/10/20 05:03:58;;;;;;;15.63;11.45;;;7.50;99.90;;;;;;5052199;28;20064;-81
2023/10/20 05:06:31;;;;;;;14.95;10.48;;;7.40;99.90;;;;;;5052374;28;20039;-83
2023/10/20 05:08:57;;;;;;;15.18;10.98;;;7.40;99.90;;;;;;5034171;28;20040;-82
2023/10/20 05:11:23;;;;;;;19.52;11.32;;;7.40;99.90;;;;;;5050959;28;20037;-79
2023/10/20 05:13:48;;;;;;;15.60;9.95;;;7.50;99.90;;;;;;5050397;28;20500;-79
2023/10/20 05:16:14;;;;;;;15.95;10.23;;;7.50;99.90;;;;;;5051424;28;20047;-78
2023/10/20 05:18:40;;;;;;;15.20;9.73;;;7.50;99.90;;;;;;5050224;28;20120;-80
2023/10/20 05:21:08;;;;;;;14.20;10.05;;;7.50;99.90;;;;;;5050341;28;20044;-78
2023/10/20 05:23:34;;;;;;;13.38;9.65;;;7.40;99.90;;;;;;5050427;28;20048;-79
2023/10/20 05:25:59;;;;;;;14.00;9.45;;;7.50;99.90;;;;;;5050228;28;20049;-78
2023/10/20 05:28:26;;;;;;;14.40;9.60;;;7.50;99.90;;;;;;5050536;28;20412;-77
2023/10/20 05:30:52;;;;;;;14.60;9.40;;;7.50;99.90;;;;;;5050363;28;20044;-78
2023/10/20 05:33:17;;;;;;;12.48;9.00;;;7.50;99.90;;;;;;5050407;28;20044;-78
2023/10/20 05:35:43;;;;;;;14.98;9.48;;;7.50;99.90;;;;;;5050562;28;20033;-79
2023/10/20 05:38:09;;;;;;;13.18;9.27;;;7.50;99.90;;;;;;5050389;28;20067;-77
2023/10/20 05:40:35;;;;;;;13.52;8.55;;;7.50;99.90;;;;;;5050436;28;20045;-79
2023/10/20 05:43:03;;;;;;;14.68;8.88;;;7.50;99.90;;;;;;5050402;28;20036;-78
2023/10/20 05:45:32;;;;;;;13.25;8.98;;;7.50;99.90;;;;;;5050309;28;20416;-76
2023/10/20 05:47:59;;;;;;;10.05;7.88;;;7.50;99.90;;;;;;5049747;28;20055;-78
2023/10/20 05:50:24;;;;;;;11.90;8.43;;;7.50;99.90;;;;;;5049757;28;20041;-78
2023/10/20 05:52:53;;;;;;;11.27;8.05;;;7.50;99.90;;;;;;5033273;28;20048;-78
2023/10/20 05:55:18;;;;;;;12.13;8.80;;;7.50;99.90;;;;;;5050059;28;20037;-78
2023/10/20 05:57:45;;;;;;;12.15;8.25;;;7.50;99.90;;;;;;5050520;28;20033;-77
2023/10/20 06:00:13;;;;;;;11.23;7.85;;;7.50;99.90;;;;;;5049881;28;20091;-79
2023/10/20 06:02:40;;;;;;;10.38;7.43;;;7.50;99.90;;;;;;5050450;28;20500;-78
2023/10/20 06:05:07;;;;;;;10.52;7.55;;;7.60;99.90;;;;;;5050255;28;20037;-82
2023/10/20 06:07:32;;;;;;;11.93;7.97;;;7.50;99.90;;;;;;5050731;28;20067;-79
2023/10/20 06:09:58;;;;;;;11.80;7.60;;;7.50;99.90;;;;;;5049914;28;20025;-78
2023/10/20 06:12:23;;;;;;;10.65;7.30;;;7.60;99.90;;;;;;5050099;28;20472;-78
2023/10/20 06:14:49;;;;;;;9.27;6.78;;;7.60;99.90;;;;;;5033526;28;20550;-78
2023/10/20 06:17:18;;;;;;;8.80;6.80;;;7.50;99.90;;;;;;5049446;28;20160;-78
2023/10/20 06:19:46;;;;;;;10.68;7.43;;;7.60;99.90;;;;;;5048902;28;20044;-80
2023/10/20 06:22:12;;;;;;;9.10;6.75;;;7.60;99.90;;;;;;5049561;28;20526;-78
2023/10/20 06:24:38;;;;;;;9.85;6.57;;;7.50;99.90;;;;;;5050465;28;20040;-80
2023/10/20 06:27:04;;;;;;;8.68;6.32;;;7.60;99.90;;;;;;5053412;28;20132;-79
2023/10/20 06:32:08;;;;;;;9.52;6.50;;;7.60;99.90;;;;;;5053393;28;20124;-81
2023/10/20 06:34:36;;;;;;;8.48;5.38;;;7.60;99.90;;;;;;5038122;28;20048;-77
2023/10/20 06:37:08;;;;;;;9.30;5.38;;;7.60;99.90;;;;;;5053996;28;20404;-78
2023/10/20 06:39:37;;;;;;;9.40;5.35;;;7.60;99.90;;;;;;5053636;28;20048;-79
2023/10/20 06:42:03;;;;;;;7.93;4.95;;;7.60;99.90;;;;;;5053894;28;20045;-78
2023/10/20 06:44:29;;;;;;;6.65;4.72;;;7.60;99.90;;;;;;5053407;28;20041;-78
2023/10/20 06:46:56;;;;;;;8.73;4.47;;;7.60;99.90;;;;;;5053231;28;20052;-79
2023/10/20 06:49:23;;;;;;;7.03;4.78;;;7.60;99.90;;;;;;5053696;28;20416;-78
2023/10/20 06:51:49;;;;;;;6.20;4.50;;;7.60;99.90;;;;;;5051371;28;20083;-78
2023/10/20 06:54:15;;;;;;;8.20;4.70;;;7.60;99.90;;;;;;5054438;28;20078;-77
2023/10/20 06:56:40;;;;;;;5.72;3.95;;;7.60;99.90;;;;;;5052028;28;20087;-79
2023/10/20 06:59:06;;;;;;;4.90;3.72;;;7.60;99.90;;;;;;5052527;28;20524;-79
2023/10/20 07:01:32;;;;;;;6.15;4.00;;;7.50;99.90;;;;;;5053415;28;20055;-79
2023/10/20 07:03:58;;;;;;;7.60;3.97;;;7.50;99.90;;;;;;5052991;28;20033;-77
2023/10/20 07:06:24;;;;;;;4.70;3.45;;;7.50;99.90;;;;;;5053059;28;20415;-78
2023/10/20 07:08:50;;;;;;;4.82;3.50;;;7.50;99.90;;;;;;5036545;28;20124;-78
2023/10/20 07:11:16;;;;;;;6.53;3.45;;;7.50;99.90;;;;;;5052509;28;20045;-78
2023/10/20 07:13:44;;;;;;;5.80;3.53;;;7.50;99.90;;;;;;5052676;28;20036;-77
2023/10/20 07:16:11;;;;;;;6.80;3.45;;;7.50;99.90;;;;;;5052675;28;20041;-77
2023/10/20 07:18:38;;;;;;;5.50;3.40;;;7.40;99.90;;;;;;5052412;28;20049;-77
2023/10/20 07:21:03;;;;;;;6.05;3.30;;;7.40;99.90;;;;;;5036134;28;20072;-76
2023/10/20 07:23:29;;;;;;;4.95;3.25;;;7.50;99.90;;;;;;5036619;28;20087;-78
2023/10/20 07:25:54;;;;;;;9.50;4.00;;;7.50;99.90;;;;;;5052767;28;20051;-79
2023/10/20 07:28:20;;;;;;;4.15;2.97;;;7.40;99.90;;;;;;5052452;28;20041;-80
2023/10/20 07:30:46;;;;;;;4.15;3.13;;;7.40;99.90;;;;;;5052119;28;20080;-79
2023/10/20 07:33:11;;;;;;;6.70;3.47;;;7.40;99.90;;;;;;5052577;28;20039;-78
2023/10/20 07:35:38;;;;;;;5.43;2.88;;;7.30;99.90;;;;;;5052527;28;20064;-79
2023/10/20 07:38:04;;;;;;;5.15;3.00;;;7.30;99.90;;;;;;5051402;28;20071;-78
2023/10/20 07:40:34;;;;;;;3.47;2.75;;;7.30;99.90;;;;;;5035096;28;20044;-78
2023/10/20 07:43:06;;;;;;;4.78;3.03;;;7.30;99.90;;;;;;5052248;28;20508;-78
2023/10/20 07:45:39;;;;;;;5.13;2.92;;;7.30;99.90;;;;;;5052486;28;20412;-79
2023/10/20 07:48:05;;;;;;;4.50;2.90;;;7.30;99.90;;;;;;5052041;28;20068;-78
2023/10/20 07:50:31;;;;;;;5.07;3.28;;;7.20;99.90;;;;;;5052080;28;20080;-78
2023/10/20 07:52:56;;;;;;;4.38;3.10;;;7.30;99.90;;;;;;5052667;28;20094;-78
2023/10/20 07:55:22;;;;;;;4.15;2.88;;;7.20;99.90;;;;;;5052297;28;20513;-77
2023/10/20 07:57:48;;;;;;;4.70;3.20;;;7.10;99.90;;;;;;5035914;28;20096;-76
2023/10/20 08:00:14;;;;;;;4.97;3.33;;;7.20;99.90;;;;;;5052044;28;20043;-79
2023/10/20 08:02:41;;;;;;;4.95;3.22;;;7.20;99.90;;;;;;5035372;28;20507;-79
2023/10/20 08:05:08;;;;;;;7.30;3.40;;;7.10;99.90;;;;;;5034769;28;20234;-80
2023/10/20 08:07:33;;;;;;;4.82;3.40;;;7.10;99.90;;;;;;5035267;28;20417;-77
2023/10/20 08:09:59;;;;;;;5.00;3.40;;;7.20;99.90;;;;;;5051374;28;20041;-81
2023/10/20 08:12:25;;;;;;;6.85;4.15;;;7.20;99.90;;;;;;5051604;28;20501;-78
2023/10/20 08:14:50;;;;;;;5.70;3.55;;;7.20;99.90;;;;;;5051473;28;20116;-79
2023/10/20 08:17:16;;;;;;;6.30;3.35;;;7.20;99.90;;;;;;5053099;28;20029;-78
2023/10/20 08:19:45;;;;;;;5.40;3.65;;;7.20;99.90;;;;;;5051157;28;20477;-79
2023/10/20 08:22:10;;;;;;;5.75;3.67;;;7.10;99.90;;;;;;5051926;28;20412;-79
2023/10/20 08:24:36;;;;;;;6.10;3.42;;;7.10;99.90;;;;;;5050835;28;20128;-79
2023/10/20 08:27:02;;;;;;;7.75;3.35;;;7.20;99.90;;;;;;5050393;28;20045;-78
2023/10/20 08:29:27;;;;;;;5.45;3.50;;;7.20;99.90;;;;;;5052596;28;20048;-79
2023/10/20 08:31:53;;;;;;;4.18;3.45;;;7.10;99.90;;;;;;5051465;28;20067;-78
2023/10/20 08:34:18;;;;;;;4.40;3.28;;;7.20;99.90;;;;;;5051332;28;20420;-80
2023/10/20 08:36:44;;;;;;;4.50;3.05;;;7.10;99.90;;;;;;5051624;28;20246;-80
2023/10/20 08:39:20;;;;;;;4.32;3.05;;;7.10;99.90;;;;;;5052834;28;20400;-80
2023/10/20 08:41:46;;;;;;;6.03;3.00;;;7.20;99.90;;;;;;5051366;28;20092;-80
2023/10/20 08:44:12;;;;;;;4.72;3.13;;;7.10;99.90;;;;;;5051683;28;20500;-80
2023/10/20 08:46:41;;;;;;;4.07;3.10;;;7.10;99.90;;;;;;5051410;28;20045;-80
2023/10/20 08:49:09;;;;;;;4.15;2.78;;;7.10;99.90;;;;;;5050489;28;20060;-81
2023/10/20 08:51:39;;;;;;;4.45;3.00;;;7.10;99.90;;;;;;5051099;28;20091;-80
2023/10/20 08:54:08;;;;;;;5.25;3.22;;;7.10;99.90;;;;;;5051146;28;20051;-81
2023/10/20 08:56:34;;;;;;;4.68;3.17;;;7.10;99.90;;;;;;5051391;28;20106;-80
2023/10/20 08:58:59;;;;;;;6.00;2.90;;;7.10;99.90;;;;;;5050771;28;20500;-79
2023/10/20 09:01:25;;;;;;;4.03;2.63;;;7.10;99.90;;;;;;5050988;28;20036;-78
2023/10/20 09:03:54;;;;;;;4.57;2.67;;;7.00;99.90;;;;;;5051254;28;20037;-80
2023/10/20 09:06:25;;;;;;;3.83;2.70;;;7.10;99.90;;;;;;5050955;28;20500;-81
2023/10/20 09:08:51;;;;;;;3.97;2.67;;;7.10;99.90;;;;;;5050986;28;20079;-80
2023/10/20 09:11:30;;;;;;;4.38;2.85;;;7.00;99.90;;;;;;5034410;28;20077;-81
2023/10/20 09:13:57;;;;;;;3.92;2.42;;;7.10;99.90;;;;;;5034150;28;20153;-81
2023/10/20 09:16:23;;;;;;;6.30;2.50;;;7.00;99.90;;;;;;5050919;28;20033;-78
2023/10/20 09:18:51;;;;;;;3.28;2.08;;;7.00;99.90;;;;;;5050816;28;20087;-81
2023/10/20 09:21:19;;;;;;;3.33;2.35;;;7.10;99.90;;;;;;5034351;28;20085;-81
2023/10/20 09:24:04;;;;;;;4.65;2.35;;;7.00;99.90;;;;;;5051017;28;20122;-81
2023/10/20 09:26:31;;;;;;;4.35;2.45;;;7.00;99.90;;;;;;5050623;28;20064;-80
2023/10/20 09:28:57;;;;;;;3.75;2.10;;;7.00;99.90;;;;;;5051326;28;20044;-80
2023/10/20 09:31:24;;;;;;;4.47;2.00;;;7.00;99.90;;;;;;5051115;28;20041;-81
2023/10/20 09:33:50;;;;;;;3.65;2.20;;;6.90;99.90;;;;;;5051279;28;20037;-83
2023/10/20 09:36:17;;;;;;;3.60;1.98;;;6.90;99.90;;;;;;5050607;28;20039;-81
2023/10/20 09:38:53;;;;;;;3.60;2.03;;;6.90;99.90;;;;;;5050604;28;20115;-82
2023/10/20 09:41:23;;;;;;;3.13;1.90;;;6.90;99.90;;;;;;5050604;28;20122;-83
2023/10/20 09:44:02;;;;;;;2.97;1.65;;;6.90;99.90;;;;;;5051047;28;20403;-82
2023/10/20 09:46:48;;;;;;;2.40;1.55;;;6.90;99.90;;;;;;5050811;28;20045;-82
2023/10/20 09:49:18;;;;;;;3.10;1.73;;;6.90;99.90;;;;;;5050937;28;20045;-80
2023/10/20 09:51:45;;;;;;;2.42;1.58;;;7.00;99.90;;;;;;5050612;28;20049;-79
2023/10/20 09:54:14;;;;;;;2.50;1.70;;;6.90;99.90;;;;;;5050643;28;20037;-82
2023/10/20 09:56:42;;;;;;;2.80;1.55;;;7.00;99.90;;;;;;5050809;28;20527;-81
2023/10/20 09:59:09;;;;;;;2.65;1.70;;;6.90;99.90;;;;;;5050837;28;20045;-80
2023/10/20 10:01:37;;;;;;;3.20;1.80;;;6.90;99.90;;;;;;5053644;28;20057;-81
2023/10/20 10:04:04;;;;;;;3.00;1.50;;;6.90;99.90;;;;;;5037750;28;20037;-80
2023/10/20 10:06:37;;;;;;;3.13;1.70;;;6.90;99.90;;;;;;5054579;28;20045;-80
2023/10/20 10:09:04;;;;;;;3.20;1.73;;;6.90;99.90;;;;;;5054012;28;20044;-82
2023/10/20 10:11:31;;;;;;;3.15;1.30;;;6.90;99.90;;;;;;5054156;28;20041;-82
2023/10/20 10:14:04;;;;;;;2.28;1.30;;;6.90;99.90;;;;;;5054388;28;20052;-80
2023/10/20 10:16:30;;;;;;;3.47;1.25;;;6.80;99.90;;;;;;5054344;28;20037;-81
2023/10/20 10:19:09;;;;;;;1.73;1.20;;;6.80;99.90;;;;;;5054257;28;20381;-80
2023/10/20 10:21:39;;;;;;;2.17;1.25;;;6.80;99.90;;;;;;5037465;28;20098;-80
2023/10/20 10:24:12;;;;;;;2.13;1.30;;;6.80;99.90;;;;;;5054343;28;20092;-81
2023/10/20 10:27:06;;;;;;;1.83;1.30;;;6.80;99.90;;;;;;5054275;28;20059;-81
2023/10/20 10:29:54;;;;;;;2.05;1.20;;;6.80;99.90;;;;;;5053826;28;20428;-82
2023/10/20 10:32:22;;;;;;;1.77;1.00;;;6.80;99.90;;;;;;5053999;28;20051;-80
2023/10/20 10:34:52;;;;;;;1.75;1.13;;;6.80;99.90;;;;;;5053684;28;20488;-81
2023/10/20 10:37:35;;;;;;;1.77;1.17;;;6.70;99.90;;;;;;5053720;28;20136;-79
2023/10/20 10:40:14;;;;;;;2.17;0.88;;;6.70;99.90;;;;;;5054058;28;20396;-82
2023/10/20 10:42:43;;;;;;;1.85;1.13;;;6.70;99.90;;;;;;5053974;28;20037;-80
2023/10/20 10:45:19;;;;;;;2.17;1.00;;;6.70;99.90;;;;;;5053632;28;20119;-80
2023/10/20 10:47:46;;;;;;;1.38;0.95;;;6.70;99.90;;;;;;5053629;28;20112;-81
2023/10/20 10:50:12;;;;;;;1.98;0.80;;;6.70;99.90;;;;;;5053473;28;20079;-81
2023/10/20 10:52:37;;;;;;;4.60;1.02;;;6.70;99.90;;;;;;5053922;28;20069;-82
2023/10/20 10:55:04;;;;;;;2.17;1.30;;;6.70;99.90;;;;;;5037345;28;20404;-81
2023/10/20 10:57:30;;;;;;;1.75;1.17;;;6.70;99.90;;;;;;5053712;28;20073;-84
2023/10/20 10:59:56;;;;;;;2.20;1.10;;;6.70;99.90;;;;;;5053579;28;20037;-80
2023/10/20 11:02:22;;;;;;;1.60;0.95;;;6.70;99.90;;;;;;5053743;28;20055;-78
2023/10/20 11:04:48;;;;;;;1.35;0.98;;;6.70;99.90;;;;;;5053481;28;20142;-81
2023/10/20 11:07:14;;;;;;;3.45;0.88;;;6.70;99.90;;;;;;5036838;28;20079;-78
2023/10/20 11:09:41;;;;;;;1.10;0.80;;;6.70;99.90;;;;;;5051948;28;20128;-82
2023/10/20 11:12:10;;;;;;;1.38;1.00;;;6.70;99.90;;;;;;5051597;28;20079;-81
2023/10/20 11:14:38;;;;;;;1.50;1.00;;;6.70;99.90;;;;;;5053341;28;20045;-80
2023/10/20 11:17:04;;;;;;;2.28;0.98;;;6.60;99.90;;;;;;5037503;28;20056;-83
2023/10/20 11:19:30;;;;;;;2.25;1.13;;;6.60;99.90;;;;;;5053080;28;20037;-81
2023/10/20 11:21:56;;;;;;;1.70;0.88;;;6.60;99.90;;;;;;5053360;28;20044;-81
2023/10/20 11:24:25;;;;;;;1.55;0.80;;;6.70;99.90;;;;;;5053380;28;20384;-79
2023/10/20 11:27:02;;;;;;;1.45;0.80;;;6.30;99.90;;;;;;5053392;28;20059;-81
2023/10/20 11:29:29;;;;;;;1.95;0.70;;;6.60;99.90;;;;;;5053176;28;20403;-82
2023/10/20 11:31:56;;;;;;;1.40;0.80;;;6.60;99.90;;;;;;5052786;28;20095;-81
2023/10/20 11:34:23;;;;;;;2.70;0.60;;;6.60;99.90;;;;;;5053260;28;20091;-82
2023/10/20 11:36:48;;;;;;;1.55;0.70;;;7.00;99.90;;;;;;5052680;28;20037;-80
2023/10/20 11:39:15;;;;;;;1.15;0.75;;;6.70;99.90;;;;;;5052556;28;20385;-81
2023/10/20 11:41:41;;;;;;;1.23;0.77;;;6.70;99.90;;;;;;5052877;28;20500;-80
2023/10/20 11:44:07;;;;;;;1.73;0.80;;;6.70;99.90;;;;;;5053137;28;20410;-80
2023/10/20 11:46:33;;;;;;;1.77;0.80;;;6.60;99.90;;;;;;5052681;28;20048;-81
2023/10/20 11:48:58;;;;;;;2.28;0.80;;;6.70;99.90;;;;;;5051877;28;20076;-81
2023/10/20 11:51:24;;;;;;;1.02;0.73;;;6.70;99.90;;;;;;5052544;28;20520;-80
2023/10/20 11:53:50;;;;;;;1.50;1.20;;;6.70;99.90;;;;;;5053086;28;20350;-82
2023/10/20 11:56:16;;;;;;;1.45;0.90;;;6.70;99.90;;;;;;5052978;28;20037;-81
2023/10/20 11:58:42;;;;;;;2.03;0.90;;;6.80;99.90;;;;;;5054055;28;20035;-80
2023/10/20 12:01:07;;;;;;;2.88;0.80;;;6.70;99.90;;;;;;5036359;28;20489;-81
2023/10/20 12:03:33;;;;;;;1.10;0.73;;;6.70;99.90;;;;;;5053359;28;20416;-81
2023/10/20 12:05:58;;;;;;;1.20;0.80;;;6.70;99.90;;;;;;5053362;28;20044;-81
2023/10/20 12:08:24;;;;;;;2.03;0.98;;;6.70;99.90;;;;;;5052520;28;20045;-81
2023/10/20 12:10:50;;;;;;;2.45;0.73;;;6.70;99.90;;;;;;5052338;28;20072;-79
2023/10/20 12:13:16;;;;;;;0.93;0.80;;;6.70;99.90;;;;;;5052817;28;20508;-83
2023/10/20 12:15:42;;;;;;;1.65;1.00;;;6.70;99.90;;;;;;5052523;28;20095;-80
2023/10/20 12:18:07;;;;;;;1.30;0.85;;;6.70;99.90;;;;;;5052340;28;20041;-80
2023/10/20 12:20:33;;;;;;;2.33;1.00;;;6.70;99.90;;;;;;5052579;28;20407;-82
2023/10/20 12:22:59;;;;;;;1.27;0.80;;;6.70;99.90;;;;;;5052081;28;20170;-80
2023/10/20 12:25:25;;;;;;;0.90;0.68;;;6.70;99.90;;;;;;5036056;28;20065;-80
2023/10/20 12:27:51;;;;;;;1.48;1.00;;;6.70;99.90;;;;;;5051574;28;20033;-81
2023/10/20 12:30:17;;;;;;;1.52;1.00;;;6.70;99.90;;;;;;5052380;28;20041;-81
2023/10/20 12:32:43;;;;;;;2.05;1.00;;;6.80;99.90;;;;;;5052385;28;20041;-83
2023/10/20 12:35:11;;;;;;;1.80;0.85;;;6.80;99.90;;;;;;5051959;28;20037;-80
2023/10/20 12:37:38;;;;;;;1.50;0.90;;;6.80;99.90;;;;;;5052643;28;20056;-81
2023/10/20 12:40:03;;;;;;;0.90;0.65;;;6.90;99.90;;;;;;5052338;28;20055;-80
2023/10/20 12:42:29;;;;;;;1.35;0.80;;;6.80;99.90;;;;;;5052092;28;20041;-81
2023/10/20 12:44:55;;;;;;;1.67;0.82;;;6.80;99.90;;;;;;5053188;28;20500;-81
2023/10/20 12:47:22;;;;;;;2.00;0.80;;;6.80;99.90;;;;;;5052618;28;20492;-81
2023/10/20 12:49:48;;;;;;;1.00;0.65;;;6.80;99.90;;;;;;5052381;28;20438;-81
2023/10/20 12:52:13;;;;;;;1.15;0.88;;;6.80;99.90;;;;;;5051902;28;20049;-81
2023/10/20 12:54:39;;;;;;;1.20;0.73;;;6.80;99.90;;;;;;5051931;28;20071;-80
2023/10/20 12:57:05;;;;;;;1.70;0.77;;;6.80;99.90;;;;;;5035211;28;20041;-81
2023/10/20 12:59:31;;;;;;;2.25;0.93;;;6.80;99.90;;;;;;5051577;28;20557;-81
2023/10/20 13:01:56;;;;;;;1.15;0.77;;;6.70;99.90;;;;;;5051776;28;20041;-81
2023/10/20 13:04:22;;;;;;;1.55;0.85;;;6.70;99.90;;;;;;5052063;28;20531;-80
2023/10/20 13:06:48;;;;;;;1.90;0.82;;;6.70;99.90;;;;;;5051742;28;20119;-82
2023/10/20 13:09:14;;;;;;;1.55;0.68;;;6.70;99.90;;;;;;5051132;28;20048;-80
2023/10/20 13:11:39;;;;;;;2.90;0.73;;;6.80;99.90;;;;;;5035367;28;20048;-80
2023/10/20 13:14:05;;;;;;;0.70;0.50;;;6.70;99.90;;;;;;5052304;28;20523;-79
2023/10/20 13:16:30;;;;;;;1.45;0.90;;;6.70;99.90;;;;;;5051723;28;20036;-81
2023/10/20 13:18:56;;;;;;;1.30;0.80;;;6.70;99.90;;;;;;5051504;28;20106;-82
2023/10/20 13:21:24;;;;;;;0.93;0.77;;;6.70;99.90;;;;;;5035492;28;20047;-80